sensor_id;sensor_type;location;lat;lon;timestamp;pressure;altitude;pressure_sealevel;temperature;humidity
9853;BME280;4965;43.238;27.864;2022-11-15T00:01:18;101115.44;;;8.12;100.00
9853;BME280;4965;43.238;27.864;2022-11-15T00:03:45;101090.44;;;8.05;100.00
9853;BME280;4965;43.238;27.864;2022-11-15T00:06:12;101119.81;;;8.28;100.00
9853;BME280;4965;43.238;27.864;2022-11-15T00:08:39;101116.75;;;8.35;100.00
9853;BME280;4965;43.238;27.864;2022-11-15T00:11:08;101095.78;;;8.04;100.00
9853;BME280;4965;43.238;27.864;2022-11-15T00:13:36;101088.47;;;8.23;100.00
9853;BME280;4965;43.238;27.864;2022-11-15T00:16:03;101106.19;;;8.35;100.00
9853;BME280;4965;43.238;27.864;2022-11-15T00:18:32;100997.78;;;7.71;100.00
9853;BME280;4965;43.238;27.864;2022-11-15T00:21:04;101112.97;;;8.39;100.00
9853;BME280;4965;43.238;27.864;2022-11-15T00:23:32;101058.56;;;8.10;100.00
9853;BME280;4965;43.238;27.864;2022-11-15T00:25:59;101034.63;;;7.85;100.00
9853;BME280;4965;43.238;27.864;2022-11-15T00:28:26;101046.34;;;7.95;100.00
9853;BME280;4965;43.238;27.864;2022-11-15T00:30:53;101062.78;;;7.98;100.00
9853;BME280;4965;43.238;27.864;2022-11-15T00:33:20;101020.16;;;7.92;100.00
9853;BME280;4965;43.238;27.864;2022-11-15T00:35:48;101088.81;;;8.33;100.00
9853;BME280;4965;43.238;27.864;2022-11-15T00:38:15;101058.00;;;8.19;100.00
9853;BME280;4965;43.238;27.864;2022-11-15T00:40:42;101024.31;;;7.96;100.00
9853;BME280;4965;43.238;27.864;2022-11-15T00:43:09;101086.94;;;8.49;100.00
9853;BME280;4965;43.238;27.864;2022-11-15T00:45:36;101091.44;;;8.47;100.00
9853;BME280;4965;43.238;27.864;2022-11-15T00:48:03;101090.31;;;8.51;100.00
9853;BME280;4965;43.238;27.864;2022-11-15T00:50:30;101087.41;;;8.41;100.00
9853;BME280;4965;43.238;27.864;2022-11-15T00:52:59;101076.25;;;8.22;100.00
9853;BME280;4965;43.238;27.864;2022-11-15T00:55:26;101089.66;;;8.33;100.00
9853;BME280;4965;43.238;27.864;2022-11-15T00:57:53;101090.41;;;8.35;100.00
9853;BME280;4965;43.238;27.864;2022-11-15T01:00:20;101086.63;;;8.39;100.00
9853;BME280;4965;43.238;27.864;2022-11-15T01:02:47;101051.53;;;8.25;100.00
9853;BME280;4965;43.238;27.864;2022-11-15T01:05:14;101077.91;;;8.53;100.00
9853;BME280;4965;43.238;27.864;2022-11-15T01:07:41;101035.91;;;8.22;100.00
9853;BME280;4965;43.238;27.864;2022-11-15T01:10:09;101070.84;;;8.39;100.00
9853;BME280;4965;43.238;27.864;2022-11-15T01:12:36;101065.53;;;8.25;100.00
9853;BME280;4965;43.238;27.864;2022-11-15T01:15:04;101071.03;;;8.36;100.00
9853;BME280;4965;43.238;27.864;2022-11-15T01:17:31;101051.66;;;8.37;100.00
9853;BME280;4965;43.238;27.864;2022-11-15T01:19:58;101074.78;;;8.46;100.00
9853;BME280;4965;43.238;27.864;2022-11-15T01:22:25;101057.25;;;8.17;100.00
9853;BME280;4965;43.238;27.864;2022-11-15T01:24:52;101088.69;;;8.34;100.00
9853;BME280;4965;43.238;27.864;2022-11-15T01:27:20;101083.53;;;8.33;100.00
9853;BME280;4965;43.238;27.864;2022-11-15T01:29:47;101020.28;;;7.90;100.00
9853;BME280;4965;43.238;27.864;2022-11-15T01:32:14;101004.94;;;7.83;100.00
9853;BME280;4965;43.238;27.864;2022-11-15T01:34:42;101069.53;;;8.32;100.00
9853;BME280;4965;43.238;27.864;2022-11-15T01:37:09;101071.50;;;8.43;100.00
9853;BME280;4965;43.238;27.864;2022-11-15T01:39:36;101039.19;;;8.25;100.00
9853;BME280;4965;43.238;27.864;2022-11-15T01:42:03;101082.31;;;8.38;100.00
9853;BME280;4965;43.238;27.864;2022-11-15T01:44:43;101071.38;;;8.30;100.00
9853;BME280;4965;43.238;27.864;2022-11-15T01:47:15;101008.72;;;7.93;100.00
9853;BME280;4965;43.238;27.864;2022-11-15T01:49:49;101061.81;;;8.43;100.00
9853;BME280;4965;43.238;27.864;2022-11-15T01:52:19;101012.69;;;8.14;100.00
9853;BME280;4965;43.238;27.864;2022-11-15T01:54:48;101067.50;;;8.22;100.00
9853;BME280;4965;43.238;27.864;2022-11-15T01:57:17;101005.81;;;7.53;100.00
9853;BME280;4965;43.238;27.864;2022-11-15T01:59:45;101030.88;;;7.89;100.00
9853;BME280;4965;43.238;27.864;2022-11-15T02:02:13;101047.94;;;7.97;100.00
9853;BME280;4965;43.238;27.864;2022-11-15T02:04:42;101026.00;;;7.83;100.00
9853;BME280;4965;43.238;27.864;2022-11-15T02:07:11;101020.00;;;7.95;100.00
9853;BME280;4965;43.238;27.864;2022-11-15T02:09:39;101044.25;;;8.00;100.00
9853;BME280;4965;43.238;27.864;2022-11-15T02:12:07;101031.47;;;7.80;100.00
9853;BME280;4965;43.238;27.864;2022-11-15T02:14:37;101044.97;;;7.74;100.00
9853;BME280;4965;43.238;27.864;2022-11-15T02:17:29;101016.94;;;7.58;100.00
9853;BME280;4965;43.238;27.864;2022-11-15T02:20:37;101040.28;;;7.79;100.00
9853;BME280;4965;43.238;27.864;2022-11-15T02:23:45;101032.38;;;7.79;100.00
9853;BME280;4965;43.238;27.864;2022-11-15T02:26:37;101035.03;;;7.79;100.00
9853;BME280;4965;43.238;27.864;2022-11-15T02:29:14;101038.91;;;7.57;100.00
9853;BME280;4965;43.238;27.864;2022-11-15T02:31:51;100991.25;;;7.48;100.00
9853;BME280;4965;43.238;27.864;2022-11-15T02:34:25;100948.25;;;7.19;100.00
9853;BME280;4965;43.238;27.864;2022-11-15T02:37:03;101027.47;;;7.73;100.00
9853;BME280;4965;43.238;27.864;2022-11-15T02:39:36;100999.75;;;7.53;100.00
9853;BME280;4965;43.238;27.864;2022-11-15T02:42:12;100997.19;;;7.51;100.00
9853;BME280;4965;43.238;27.864;2022-11-15T02:44:56;100998.88;;;7.52;100.00
9853;BME280;4965;43.238;27.864;2022-11-15T02:47:27;100994.38;;;7.54;100.00
9853;BME280;4965;43.238;27.864;2022-11-15T02:49:59;101018.50;;;7.91;100.00
9853;BME280;4965;43.238;27.864;2022-11-15T02:52:28;101033.53;;;7.89;100.00
9853;BME280;4965;43.238;27.864;2022-11-15T02:54:56;101014.34;;;7.87;100.00
9853;BME280;4965;43.238;27.864;2022-11-15T02:57:35;100980.09;;;7.58;100.00
9853;BME280;4965;43.238;27.864;2022-11-15T03:00:11;100998.19;;;7.93;100.00
9853;BME280;4965;43.238;27.864;2022-11-15T03:03:15;101016.59;;;7.93;100.00
9853;BME280;4965;43.238;27.864;2022-11-15T03:05:53;101004.84;;;7.84;100.00
9853;BME280;4965;43.238;27.864;2022-11-15T03:08:30;101010.59;;;7.91;100.00
9853;BME280;4965;43.238;27.864;2022-11-15T03:11:03;100988.19;;;7.70;100.00
9853;BME280;4965;43.238;27.864;2022-11-15T03:13:37;100935.38;;;7.44;100.00
9853;BME280;4965;43.238;27.864;2022-11-15T03:16:09;101014.34;;;7.87;100.00
9853;BME280;4965;43.238;27.864;2022-11-15T03:18:45;100989.13;;;7.68;100.00
9853;BME280;4965;43.238;27.864;2022-11-15T03:21:15;100994.44;;;7.83;100.00
9853;BME280;4965;43.238;27.864;2022-11-15T03:23:44;100984.25;;;7.62;100.00
9853;BME280;4965;43.238;27.864;2022-11-15T03:26:15;101004.03;;;7.84;100.00
9853;BME280;4965;43.238;27.864;2022-11-15T03:28:47;100921.25;;;7.45;100.00
9853;BME280;4965;43.238;27.864;2022-11-15T03:31:18;100976.94;;;7.82;100.00
9853;BME280;4965;43.238;27.864;2022-11-15T03:34:07;100967.59;;;7.62;100.00
9853;BME280;4965;43.238;27.864;2022-11-15T03:36:37;101008.50;;;7.82;100.00
9853;BME280;4965;43.238;27.864;2022-11-15T03:39:06;100989.91;;;7.85;100.00
9853;BME280;4965;43.238;27.864;2022-11-15T03:41:37;100976.84;;;7.97;100.00
9853;BME280;4965;43.238;27.864;2022-11-15T03:44:13;100976.94;;;7.96;100.00
9853;BME280;4965;43.238;27.864;2022-11-15T03:46:46;100967.91;;;7.86;100.00
9853;BME280;4965;43.238;27.864;2022-11-15T03:49:22;100965.28;;;7.72;100.00
9853;BME280;4965;43.238;27.864;2022-11-15T03:51:51;100954.84;;;7.84;100.00
9853;BME280;4965;43.238;27.864;2022-11-15T03:54:18;100939.63;;;7.75;100.00
9853;BME280;4965;43.238;27.864;2022-11-15T03:56:45;100974.03;;;8.00;100.00
9853;BME280;4965;43.238;27.864;2022-11-15T03:59:12;100943.00;;;7.77;100.00
9853;BME280;4965;43.238;27.864;2022-11-15T04:01:39;100905.88;;;7.53;100.00
9853;BME280;4965;43.238;27.864;2022-11-15T04:04:06;100967.75;;;8.03;100.00
9853;BME280;4965;43.238;27.864;2022-11-15T04:06:35;100947.44;;;7.91;100.00
9853;BME280;4965;43.238;27.864;2022-11-15T04:09:01;100955.72;;;7.99;100.00
9853;BME280;4965;43.238;27.864;2022-11-15T04:11:28;100966.78;;;8.18;100.00
9853;BME280;4965;43.238;27.864;2022-11-15T04:13:55;100942.53;;;8.13;100.00
9853;BME280;4965;43.238;27.864;2022-11-15T04:16:22;100925.06;;;7.98;100.00
9853;BME280;4965;43.238;27.864;2022-11-15T04:18:49;100966.63;;;8.07;100.00
9853;BME280;4965;43.238;27.864;2022-11-15T04:21:37;100963.41;;;8.30;100.00
9853;BME280;4965;43.238;27.864;2022-11-15T04:24:21;100980.81;;;8.33;100.00
9853;BME280;4965;43.238;27.864;2022-11-15T04:26:48;100952.50;;;8.22;100.00
9853;BME280;4965;43.238;27.864;2022-11-15T04:29:15;100959.75;;;8.19;100.00
9853;BME280;4965;43.238;27.864;2022-11-15T04:32:00;100938.97;;;8.14;100.00
9853;BME280;4965;43.238;27.864;2022-11-15T04:34:27;100932.50;;;7.91;100.00
9853;BME280;4965;43.238;27.864;2022-11-15T04:36:56;100969.13;;;8.23;100.00
9853;BME280;4965;43.238;27.864;2022-11-15T04:39:38;100947.75;;;8.27;100.00
9853;BME280;4965;43.238;27.864;2022-11-15T04:42:05;100969.16;;;8.37;100.00
9853;BME280;4965;43.238;27.864;2022-11-15T04:44:32;100961.97;;;8.25;100.00
9853;BME280;4965;43.238;27.864;2022-11-15T04:46:58;100972.72;;;8.22;100.00
9853;BME280;4965;43.238;27.864;2022-11-15T04:49:25;100949.69;;;7.97;100.00
9853;BME280;4965;43.238;27.864;2022-11-15T04:51:52;100963.97;;;8.21;100.00
9853;BME280;4965;43.238;27.864;2022-11-15T04:54:20;100937.94;;;8.02;100.00
9853;BME280;4965;43.238;27.864;2022-11-15T04:56:47;100968.50;;;8.33;100.00
9853;BME280;4965;43.238;27.864;2022-11-15T04:59:14;100966.81;;;8.32;100.00
9853;BME280;4965;43.238;27.864;2022-11-15T05:01:43;100965.81;;;8.19;100.00
9853;BME280;4965;43.238;27.864;2022-11-15T05:04:11;100970.44;;;8.15;100.00
9853;BME280;4965;43.238;27.864;2022-11-15T05:06:47;100964.53;;;8.26;100.00
9853;BME280;4965;43.238;27.864;2022-11-15T05:09:14;100973.13;;;8.30;100.00
9853;BME280;4965;43.238;27.864;2022-11-15T05:11:43;100951.06;;;8.17;100.00
9853;BME280;4965;43.238;27.864;2022-11-15T05:14:10;100922.22;;;8.01;100.00
9853;BME280;4965;43.238;27.864;2022-11-15T05:16:37;100949.53;;;8.27;100.00
9853;BME280;4965;43.238;27.864;2022-11-15T05:19:04;100969.31;;;8.20;100.00
9853;BME280;4965;43.238;27.864;2022-11-15T05:21:32;100936.97;;;8.18;100.00
9853;BME280;4965;43.238;27.864;2022-11-15T05:23:59;100961.63;;;8.31;100.00
9853;BME280;4965;43.238;27.864;2022-11-15T05:26:26;100971.59;;;8.26;100.00
9853;BME280;4965;43.238;27.864;2022-11-15T05:28:56;100949.94;;;8.21;100.00
9853;BME280;4965;43.238;27.864;2022-11-15T05:31:24;100954.16;;;8.23;100.00
9853;BME280;4965;43.238;27.864;2022-11-15T05:33:51;100962.09;;;8.37;100.00
9853;BME280;4965;43.238;27.864;2022-11-15T05:36:24;100974.50;;;8.49;100.00
9853;BME280;4965;43.238;27.864;2022-11-15T05:38:53;100950.50;;;8.40;100.00
9853;BME280;4965;43.238;27.864;2022-11-15T05:41:22;100950.16;;;8.18;100.00
9853;BME280;4965;43.238;27.864;2022-11-15T05:43:55;100957.28;;;8.15;100.00
9853;BME280;4965;43.238;27.864;2022-11-15T05:46:22;100964.72;;;8.37;100.00
9853;BME280;4965;43.238;27.864;2022-11-15T05:48:51;100960.13;;;8.41;100.00
9853;BME280;4965;43.238;27.864;2022-11-15T05:51:21;100926.69;;;8.27;100.00
9853;BME280;4965;43.238;27.864;2022-11-15T05:53:52;100958.97;;;8.45;100.00
9853;BME280;4965;43.238;27.864;2022-11-15T05:56:20;100961.00;;;8.68;100.00
9853;BME280;4965;43.238;27.864;2022-11-15T05:58:47;100982.88;;;8.83;100.00
9853;BME280;4965;43.238;27.864;2022-11-15T06:01:15;100940.84;;;8.67;100.00
9853;BME280;4965;43.238;27.864;2022-11-15T06:03:42;100957.56;;;8.80;100.00
9853;BME280;4965;43.238;27.864;2022-11-15T06:06:10;100982.94;;;9.08;100.00
9853;BME280;4965;43.238;27.864;2022-11-15T06:08:36;100958.72;;;9.16;100.00
9853;BME280;4965;43.238;27.864;2022-11-15T06:11:04;100982.25;;;9.19;100.00
9853;BME280;4965;43.238;27.864;2022-11-15T06:13:32;100983.84;;;9.21;100.00
9853;BME280;4965;43.238;27.864;2022-11-15T06:16:00;100919.84;;;8.92;100.00
9853;BME280;4965;43.238;27.864;2022-11-15T06:18:31;100963.84;;;9.04;100.00
9853;BME280;4965;43.238;27.864;2022-11-15T06:20:58;100977.94;;;9.18;100.00
9853;BME280;4965;43.238;27.864;2022-11-15T06:23:26;100958.81;;;9.14;100.00
9853;BME280;4965;43.238;27.864;2022-11-15T06:25:57;100972.47;;;9.33;100.00
9853;BME280;4965;43.238;27.864;2022-11-15T06:28:25;100968.56;;;9.39;100.00
9853;BME280;4965;43.238;27.864;2022-11-15T06:30:54;100968.56;;;9.26;100.00
9853;BME280;4965;43.238;27.864;2022-11-15T06:33:21;100984.09;;;9.43;100.00
9853;BME280;4965;43.238;27.864;2022-11-15T06:35:49;100970.06;;;9.43;100.00
9853;BME280;4965;43.238;27.864;2022-11-15T06:38:16;100938.06;;;9.22;100.00
9853;BME280;4965;43.238;27.864;2022-11-15T06:40:43;100961.44;;;9.53;100.00
9853;BME280;4965;43.238;27.864;2022-11-15T06:43:10;100920.84;;;9.17;100.00
9853;BME280;4965;43.238;27.864;2022-11-15T06:45:37;100896.16;;;9.18;100.00
9853;BME280;4965;43.238;27.864;2022-11-15T06:48:05;100961.00;;;9.97;100.00
9853;BME280;4965;43.238;27.864;2022-11-15T06:50:32;100957.84;;;9.80;100.00
9853;BME280;4965;43.238;27.864;2022-11-15T06:53:03;100982.84;;;10.12;100.00
9853;BME280;4965;43.238;27.864;2022-11-15T06:55:30;100978.44;;;10.25;100.00
9853;BME280;4965;43.238;27.864;2022-11-15T06:57:57;100955.19;;;10.18;100.00
9853;BME280;4965;43.238;27.864;2022-11-15T07:00:24;100966.25;;;10.35;100.00
9853;BME280;4965;43.238;27.864;2022-11-15T07:02:51;100970.34;;;10.52;100.00
9853;BME280;4965;43.238;27.864;2022-11-15T07:05:18;100925.59;;;10.25;100.00
9853;BME280;4965;43.238;27.864;2022-11-15T07:07:51;100978.47;;;10.62;100.00
9853;BME280;4965;43.238;27.864;2022-11-15T07:10:20;100958.91;;;10.15;100.00
9853;BME280;4965;43.238;27.864;2022-11-15T07:12:47;100965.53;;;10.33;100.00
9853;BME280;4965;43.238;27.864;2022-11-15T07:15:14;100963.81;;;10.32;100.00
9853;BME280;4965;43.238;27.864;2022-11-15T07:17:41;100975.81;;;10.62;100.00
9853;BME280;4965;43.238;27.864;2022-11-15T07:20:09;100973.34;;;10.95;100.00
9853;BME280;4965;43.238;27.864;2022-11-15T07:22:36;100961.34;;;10.78;100.00
9853;BME280;4965;43.238;27.864;2022-11-15T07:25:03;100942.00;;;10.78;100.00
9853;BME280;4965;43.238;27.864;2022-11-15T07:27:32;100946.00;;;10.83;100.00
9853;BME280;4965;43.238;27.864;2022-11-15T07:29:59;100910.06;;;10.57;100.00
9853;BME280;4965;43.238;27.864;2022-11-15T07:32:26;100922.66;;;10.54;100.00
9853;BME280;4965;43.238;27.864;2022-11-15T07:34:54;100967.94;;;10.73;100.00
9853;BME280;4965;43.238;27.864;2022-11-15T07:37:20;100963.69;;;10.46;100.00
9853;BME280;4965;43.238;27.864;2022-11-15T07:39:48;100982.06;;;10.61;100.00
9853;BME280;4965;43.238;27.864;2022-11-15T07:42:15;100958.91;;;10.51;100.00
9853;BME280;4965;43.238;27.864;2022-11-15T07:45:00;100977.50;;;10.63;100.00
9853;BME280;4965;43.238;27.864;2022-11-15T07:47:28;100969.09;;;10.45;100.00
9853;BME280;4965;43.238;27.864;2022-11-15T07:49:56;100975.38;;;10.68;100.00
9853;BME280;4965;43.238;27.864;2022-11-15T07:52:23;100954.28;;;10.79;100.00
9853;BME280;4965;43.238;27.864;2022-11-15T07:54:50;100955.13;;;10.79;100.00
9853;BME280;4965;43.238;27.864;2022-11-15T07:57:17;100939.88;;;10.83;100.00
9853;BME280;4965;43.238;27.864;2022-11-15T07:59:43;100884.94;;;10.39;100.00
9853;BME280;4965;43.238;27.864;2022-11-15T08:02:12;100986.66;;;10.70;100.00
9853;BME280;4965;43.238;27.864;2022-11-15T08:04:39;100954.28;;;10.79;100.00
9853;BME280;4965;43.238;27.864;2022-11-15T08:07:07;100963.72;;;10.94;100.00
9853;BME280;4965;43.238;27.864;2022-11-15T08:09:34;100954.81;;;11.19;100.00
9853;BME280;4965;43.238;27.864;2022-11-15T08:12:00;100952.56;;;11.02;100.00
9853;BME280;4965;43.238;27.864;2022-11-15T08:14:27;100969.38;;;11.24;100.00
9853;BME280;4965;43.238;27.864;2022-11-15T08:16:54;100969.94;;;11.17;100.00
9853;BME280;4965;43.238;27.864;2022-11-15T08:19:23;100973.00;;;11.23;100.00
9853;BME280;4965;43.238;27.864;2022-11-15T08:21:50;100970.28;;;11.12;100.00
9853;BME280;4965;43.238;27.864;2022-11-15T08:24:17;100947.41;;;11.00;100.00
9853;BME280;4965;43.238;27.864;2022-11-15T08:26:44;100950.50;;;10.94;100.00
9853;BME280;4965;43.238;27.864;2022-11-15T08:29:11;100951.25;;;10.96;100.00
9853;BME280;4965;43.238;27.864;2022-11-15T08:31:38;100964.09;;;11.00;100.00
9853;BME280;4965;43.238;27.864;2022-11-15T08:34:05;100960.34;;;11.16;100.00
9853;BME280;4965;43.238;27.864;2022-11-15T08:36:33;100955.19;;;11.25;100.00
9853;BME280;4965;43.238;27.864;2022-11-15T08:39:01;100886.94;;;10.72;100.00
9853;BME280;4965;43.238;27.864;2022-11-15T08:41:32;100953.41;;;11.02;100.00
9853;BME280;4965;43.238;27.864;2022-11-15T08:44:01;100961.16;;;11.16;100.00
9853;BME280;4965;43.238;27.864;2022-11-15T08:46:28;100939.19;;;11.16;100.00
9853;BME280;4965;43.238;27.864;2022-11-15T08:48:55;100874.03;;;10.91;100.00
9853;BME280;4965;43.238;27.864;2022-11-15T08:51:22;100926.94;;;11.26;100.00
9853;BME280;4965;43.238;27.864;2022-11-15T08:53:50;100926.97;;;11.48;100.00
9853;BME280;4965;43.238;27.864;2022-11-15T08:56:17;100926.28;;;11.57;100.00
9853;BME280;4965;43.238;27.864;2022-11-15T08:58:44;100854.78;;;11.35;100.00
9853;BME280;4965;43.238;27.864;2022-11-15T09:01:17;100919.91;;;11.71;100.00
9853;BME280;4965;43.238;27.864;2022-11-15T09:03:44;100915.38;;;11.73;100.00
9853;BME280;4965;43.238;27.864;2022-11-15T09:06:11;100902.09;;;11.62;100.00
9853;BME280;4965;43.238;27.864;2022-11-15T09:08:39;100887.00;;;11.40;100.00
9853;BME280;4965;43.238;27.864;2022-11-15T09:11:08;100898.88;;;11.69;100.00
9853;BME280;4965;43.238;27.864;2022-11-15T09:13:37;100911.69;;;11.52;100.00
9853;BME280;4965;43.238;27.864;2022-11-15T09:16:04;100893.63;;;11.34;100.00
9853;BME280;4965;43.238;27.864;2022-11-15T09:18:31;100889.56;;;11.53;100.00
9853;BME280;4965;43.238;27.864;2022-11-15T09:20:59;100884.56;;;11.83;100.00
9853;BME280;4965;43.238;27.864;2022-11-15T09:23:30;100903.09;;;11.72;100.00
9853;BME280;4965;43.238;27.864;2022-11-15T09:26:00;100877.78;;;11.68;100.00
9853;BME280;4965;43.238;27.864;2022-11-15T09:28:31;100891.06;;;11.90;100.00
9853;BME280;4965;43.238;27.864;2022-11-15T09:30:58;100893.94;;;11.98;100.00
9853;BME280;4965;43.238;27.864;2022-11-15T09:33:26;100891.03;;;12.01;100.00
9853;BME280;4965;43.238;27.864;2022-11-15T09:35:53;100883.69;;;12.16;100.00
9853;BME280;4965;43.238;27.864;2022-11-15T09:38:20;100869.56;;;12.37;100.00
9853;BME280;4965;43.238;27.864;2022-11-15T09:40:51;100869.50;;;12.49;100.00
9853;BME280;4965;43.238;27.864;2022-11-15T09:43:31;100857.84;;;12.72;100.00
9853;BME280;4965;43.238;27.864;2022-11-15T09:46:07;100859.97;;;12.89;100.00
9853;BME280;4965;43.238;27.864;2022-11-15T09:48:47;100852.44;;;12.73;100.00
9853;BME280;4965;43.238;27.864;2022-11-15T09:51:25;100848.84;;;12.63;100.00
9853;BME280;4965;43.238;27.864;2022-11-15T09:53:58;100851.59;;;12.73;100.00
9853;BME280;4965;43.238;27.864;2022-11-15T09:56:30;100800.19;;;12.53;100.00
9853;BME280;4965;43.238;27.864;2022-11-15T09:59:08;100829.34;;;12.85;100.00
9853;BME280;4965;43.238;27.864;2022-11-15T10:01:44;100820.03;;;12.70;100.00
9853;BME280;4965;43.238;27.864;2022-11-15T10:04:17;100772.25;;;12.49;100.00
9853;BME280;4965;43.238;27.864;2022-11-15T10:06:49;100843.63;;;12.73;100.00
9853;BME280;4965;43.238;27.864;2022-11-15T10:09:23;100825.38;;;13.11;100.00
9853;BME280;4965;43.238;27.864;2022-11-15T10:11:52;100757.34;;;12.89;100.00
9853;BME280;4965;43.238;27.864;2022-11-15T10:14:22;100798.59;;;13.03;100.00
9853;BME280;4965;43.238;27.864;2022-11-15T10:17:17;100829.66;;;13.54;100.00
9853;BME280;4965;43.238;27.864;2022-11-15T10:19:55;100821.22;;;13.49;100.00
9853;BME280;4965;43.238;27.864;2022-11-15T10:22:28;100804.34;;;13.59;100.00
9853;BME280;4965;43.238;27.864;2022-11-15T10:25:21;100811.41;;;13.70;100.00
9853;BME280;4965;43.238;27.864;2022-11-15T10:27:55;100790.94;;;13.61;100.00
9853;BME280;4965;43.238;27.864;2022-11-15T10:36:23;100779.34;;;13.62;100.00
9853;BME280;4965;43.238;27.864;2022-11-15T10:38:57;100796.16;;;13.72;100.00
9853;BME280;4965;43.238;27.864;2022-11-15T10:41:39;100753.25;;;13.76;100.00
9853;BME280;4965;43.238;27.864;2022-11-15T10:44:28;100796.63;;;13.87;100.00
9853;BME280;4965;43.238;27.864;2022-11-15T10:47:20;100772.13;;;13.73;100.00
9853;BME280;4965;43.238;27.864;2022-11-15T10:49:56;100770.03;;;13.87;100.00
9853;BME280;4965;43.238;27.864;2022-11-15T10:52:25;100745.44;;;13.94;100.00
9853;BME280;4965;43.238;27.864;2022-11-15T10:54:56;100771.06;;;14.14;100.00
9853;BME280;4965;43.238;27.864;2022-11-15T10:57:26;100750.38;;;14.08;100.00
9853;BME280;4965;43.238;27.864;2022-11-15T10:59:55;100751.81;;;14.51;100.00
9853;BME280;4965;43.238;27.864;2022-11-15T11:02:35;100744.94;;;14.39;100.00
9853;BME280;4965;43.238;27.864;2022-11-15T11:05:04;100735.69;;;14.23;100.00
9853;BME280;4965;43.238;27.864;2022-11-15T11:07:34;100766.00;;;14.02;100.00
9853;BME280;4965;43.238;27.864;2022-11-15T11:10:05;100737.38;;;13.56;100.00
9853;BME280;4965;43.238;27.864;2022-11-15T11:12:43;100733.06;;;13.55;100.00
9853;BME280;4965;43.238;27.864;2022-11-15T11:15:14;100746.13;;;13.77;100.00
9853;BME280;4965;43.238;27.864;2022-11-15T11:17:51;100739.97;;;13.67;100.00
9853;BME280;4965;43.238;27.864;2022-11-15T11:20:24;100674.38;;;13.18;100.00
9853;BME280;4965;43.238;27.864;2022-11-15T11:23:14;100732.28;;;13.83;100.00
9853;BME280;4965;43.238;27.864;2022-11-15T11:25:50;100712.22;;;13.60;100.00
9853;BME280;4965;43.238;27.864;2022-11-15T11:28:29;100706.53;;;13.74;100.00
9853;BME280;4965;43.238;27.864;2022-11-15T11:31:07;100682.94;;;14.00;100.00
9853;BME280;4965;43.238;27.864;2022-11-15T11:33:42;100705.47;;;14.05;100.00
9853;BME280;4965;43.238;27.864;2022-11-15T11:36:21;100656.63;;;14.06;100.00
9853;BME280;4965;43.238;27.864;2022-11-15T11:39:10;100704.78;;;14.13;100.00
9853;BME280;4965;43.238;27.864;2022-11-15T11:41:52;100723.50;;;14.11;100.00
9853;BME280;4965;43.238;27.864;2022-11-15T11:44:30;100654.38;;;13.73;100.00
9853;BME280;4965;43.238;27.864;2022-11-15T11:47:01;100692.78;;;13.50;100.00
9853;BME280;4965;43.238;27.864;2022-11-15T11:49:35;100676.13;;;13.48;100.00
9853;BME280;4965;43.238;27.864;2022-11-15T11:52:10;100696.41;;;13.39;100.00
9853;BME280;4965;43.238;27.864;2022-11-15T11:54:52;100636.28;;;12.98;100.00
9853;BME280;4965;43.238;27.864;2022-11-15T11:57:30;100682.84;;;13.42;100.00
9853;BME280;4965;43.238;27.864;2022-11-15T12:00:03;100693.06;;;13.47;100.00
9853;BME280;4965;43.238;27.864;2022-11-15T12:02:35;100670.25;;;13.04;100.00
9853;BME280;4965;43.238;27.864;2022-11-15T12:05:10;100679.41;;;13.21;100.00
9853;BME280;4965;43.238;27.864;2022-11-15T12:07:39;100668.84;;;13.30;100.00
9853;BME280;4965;43.238;27.864;2022-11-15T12:10:17;100681.50;;;13.76;100.00
9853;BME280;4965;43.238;27.864;2022-11-15T12:12:54;100654.50;;;13.62;100.00
9853;BME280;4965;43.238;27.864;2022-11-15T12:15:24;100653.25;;;13.66;100.00
9853;BME280;4965;43.238;27.864;2022-11-15T12:17:55;100660.41;;;13.84;100.00
9853;BME280;4965;43.238;27.864;2022-11-15T12:20:23;100622.41;;;13.25;100.00
9853;BME280;4965;43.238;27.864;2022-11-15T12:22:55;100656.56;;;13.39;100.00
9853;BME280;4965;43.238;27.864;2022-11-15T12:25:28;100648.78;;;13.76;100.00
9853;BME280;4965;43.238;27.864;2022-11-15T12:28:01;100648.88;;;13.36;100.00
9853;BME280;4965;43.238;27.864;2022-11-15T12:30:42;100636.97;;;13.30;100.00
9853;BME280;4965;43.238;27.864;2022-11-15T12:33:34;100643.72;;;13.63;100.00
9853;BME280;4965;43.238;27.864;2022-11-15T12:36:05;100611.31;;;13.50;100.00
9853;BME280;4965;43.238;27.864;2022-11-15T12:38:56;100636.06;;;13.99;100.00
9853;BME280;4965;43.238;27.864;2022-11-15T12:41:25;100615.09;;;13.96;100.00
9853;BME280;4965;43.238;27.864;2022-11-15T12:43:53;100613.53;;;13.45;100.00
9853;BME280;4965;43.238;27.864;2022-11-15T12:46:26;100607.13;;;14.05;100.00
9853;BME280;4965;43.238;27.864;2022-11-15T12:49:11;100616.78;;;13.77;100.00
9853;BME280;4965;43.238;27.864;2022-11-15T12:52:08;100605.44;;;13.47;100.00
9853;BME280;4965;43.238;27.864;2022-11-15T12:55:08;100624.38;;;13.23;100.00
9853;BME280;4965;43.238;27.864;2022-11-15T12:57:54;100638.72;;;12.80;100.00
9853;BME280;4965;43.238;27.864;2022-11-15T13:00:42;100622.00;;;13.20;100.00
9853;BME280;4965;43.238;27.864;2022-11-15T13:03:25;100591.53;;;13.14;100.00
9853;BME280;4965;43.238;27.864;2022-11-15T13:06:05;100619.44;;;13.09;100.00
9853;BME280;4965;43.238;27.864;2022-11-15T13:08:50;100584.94;;;13.09;100.00
9853;BME280;4965;43.238;27.864;2022-11-15T13:11:47;100612.78;;;12.84;100.00
9853;BME280;4965;43.238;27.864;2022-11-15T13:14:43;100612.44;;;13.08;100.00
9853;BME280;4965;43.238;27.864;2022-11-15T13:17:23;100585.56;;;12.82;100.00
9853;BME280;4965;43.238;27.864;2022-11-15T13:19:57;100590.69;;;13.14;100.00
9853;BME280;4965;43.238;27.864;2022-11-15T13:22:25;100595.44;;;13.10;100.00
9853;BME280;4965;43.238;27.864;2022-11-15T13:25:21;100574.31;;;13.09;100.00